sensor_id;sensor_type;location;lat;lon;timestamp;P1;durP1;ratioP1;P2;durP2;ratioP2
12966;SDS011;6548;49.996;8.238;2022-08-18T00:02:06;10.98;;;9.70;;
12966;SDS011;6548;49.996;8.238;2022-08-18T00:04:35;13.23;;;11.15;;
12966;SDS011;6548;49.996;8.238;2022-08-18T00:07:06;11.80;;;10.48;;
12966;SDS011;6548;49.996;8.238;2022-08-18T00:09:34;11.35;;;10.15;;
12966;SDS011;6548;49.996;8.238;2022-08-18T00:12:02;14.20;;;10.52;;
12966;SDS011;6548;49.996;8.238;2022-08-18T00:14:30;12.10;;;10.57;;
12966;SDS011;6548;49.996;8.238;2022-08-18T00:16:56;12.02;;;10.07;;
12966;SDS011;6548;49.996;8.238;2022-08-18T00:19:22;12.40;;;10.98;;
12966;SDS011;6548;49.996;8.238;2022-08-18T00:21:49;13.00;;;11.00;;
12966;SDS011;6548;49.996;8.238;2022-08-18T00:24:15;12.60;;;10.77;;
12966;SDS011;6548;49.996;8.238;2022-08-18T00:26:40;11.40;;;10.00;;
12966;SDS011;6548;49.996;8.238;2022-08-18T00:29:06;10.80;;;9.80;;
12966;SDS011;6548;49.996;8.238;2022-08-18T00:31:32;11.77;;;10.00;;
12966;SDS011;6548;49.996;8.238;2022-08-18T00:33:57;11.52;;;10.10;;
12966;SDS011;6548;49.996;8.238;2022-08-18T00:36:24;12.63;;;9.88;;
12966;SDS011;6548;49.996;8.238;2022-08-18T00:38:50;11.10;;;9.77;;
12966;SDS011;6548;49.996;8.238;2022-08-18T00:41:16;12.43;;;9.25;;
12966;SDS011;6548;49.996;8.238;2022-08-18T00:43:44;10.38;;;8.98;;
12966;SDS011;6548;49.996;8.238;2022-08-18T00:46:24;11.60;;;10.40;;
12966;SDS011;6548;49.996;8.238;2022-08-18T00:48:52;10.77;;;9.23;;
12966;SDS011;6548;49.996;8.238;2022-08-18T00:54:11;11.47;;;9.57;;
12966;SDS011;6548;49.996;8.238;2022-08-18T00:56:42;10.35;;;8.43;;
12966;SDS011;6548;49.996;8.238;2022-08-18T01:02:07;9.82;;;7.60;;
12966;SDS011;6548;49.996;8.238;2022-08-18T01:04:45;10.60;;;8.65;;
12966;SDS011;6548;49.996;8.238;2022-08-18T01:07:21;10.20;;;8.85;;
12966;SDS011;6548;49.996;8.238;2022-08-18T01:09:57;10.75;;;8.07;;
12966;SDS011;6548;49.996;8.238;2022-08-18T01:12:27;10.75;;;9.55;;
12966;SDS011;6548;49.996;8.238;2022-08-18T01:14:53;11.07;;;9.65;;
12966;SDS011;6548;49.996;8.238;2022-08-18T01:17:20;11.73;;;9.25;;
12966;SDS011;6548;49.996;8.238;2022-08-18T01:20:05;11.60;;;10.40;;
12966;SDS011;6548;49.996;8.238;2022-08-18T01:23:06;12.45;;;10.25;;
12966;SDS011;6548;49.996;8.238;2022-08-18T01:25:36;12.88;;;10.15;;
12966;SDS011;6548;49.996;8.238;2022-08-18T01:28:20;12.50;;;9.95;;
12966;SDS011;6548;49.996;8.238;2022-08-18T01:30:49;11.18;;;9.50;;
12966;SDS011;6548;49.996;8.238;2022-08-18T01:33:23;11.07;;;9.75;;
12966;SDS011;6548;49.996;8.238;2022-08-18T01:35:56;12.70;;;9.27;;
12966;SDS011;6548;49.996;8.238;2022-08-18T01:38:28;10.45;;;9.07;;
12966;SDS011;6548;49.996;8.238;2022-08-18T01:40:56;10.20;;;9.20;;
12966;SDS011;6548;49.996;8.238;2022-08-18T01:43:22;10.73;;;9.45;;
12966;SDS011;6548;49.996;8.238;2022-08-18T01:45:48;11.90;;;9.60;;
12966;SDS011;6548;49.996;8.238;2022-08-18T01:48:14;11.95;;;8.75;;
12966;SDS011;6548;49.996;8.238;2022-08-18T01:50:40;10.60;;;9.50;;
12966;SDS011;6548;49.996;8.238;2022-08-18T01:53:08;11.93;;;10.60;;
12966;SDS011;6548;49.996;8.238;2022-08-18T01:55:36;11.55;;;9.80;;
12966;SDS011;6548;49.996;8.238;2022-08-18T01:58:05;11.57;;;9.07;;
12966;SDS011;6548;49.996;8.238;2022-08-18T02:00:32;11.30;;;9.70;;
12966;SDS011;6548;49.996;8.238;2022-08-18T02:02:59;11.35;;;9.60;;
12966;SDS011;6548;49.996;8.238;2022-08-18T02:05:36;12.15;;;9.23;;
12966;SDS011;6548;49.996;8.238;2022-08-18T02:08:04;10.07;;;9.00;;
12966;SDS011;6548;49.996;8.238;2022-08-18T02:10:30;10.88;;;9.77;;
12966;SDS011;6548;49.996;8.238;2022-08-18T02:12:56;10.93;;;9.00;;
12966;SDS011;6548;49.996;8.238;2022-08-18T02:15:21;11.27;;;9.38;;
12966;SDS011;6548;49.996;8.238;2022-08-18T02:17:47;10.55;;;9.45;;
12966;SDS011;6548;49.996;8.238;2022-08-18T02:20:14;9.52;;;8.52;;
12966;SDS011;6548;49.996;8.238;2022-08-18T02:22:42;10.48;;;9.38;;
12966;SDS011;6548;49.996;8.238;2022-08-18T02:25:09;12.15;;;9.95;;
12966;SDS011;6548;49.996;8.238;2022-08-18T02:27:35;11.43;;;9.68;;
12966;SDS011;6548;49.996;8.238;2022-08-18T02:30:03;12.65;;;8.60;;
12966;SDS011;6548;49.996;8.238;2022-08-18T02:32:32;11.50;;;10.20;;
12966;SDS011;6548;49.996;8.238;2022-08-18T02:34:58;12.43;;;10.15;;
12966;SDS011;6548;49.996;8.238;2022-08-18T02:37:24;13.05;;;10.15;;
12966;SDS011;6548;49.996;8.238;2022-08-18T02:39:50;12.00;;;9.50;;
12966;SDS011;6548;49.996;8.238;2022-08-18T02:42:15;11.23;;;9.48;;
12966;SDS011;6548;49.996;8.238;2022-08-18T02:44:41;12.35;;;10.40;;
12966;SDS011;6548;49.996;8.238;2022-08-18T02:47:08;13.40;;;9.85;;
12966;SDS011;6548;49.996;8.238;2022-08-18T02:49:33;11.32;;;9.73;;
12966;SDS011;6548;49.996;8.238;2022-08-18T02:52:00;13.77;;;10.20;;
12966;SDS011;6548;49.996;8.238;2022-08-18T02:54:26;12.02;;;10.45;;
12966;SDS011;6548;49.996;8.238;2022-08-18T02:56:52;10.80;;;9.70;;
12966;SDS011;6548;49.996;8.238;2022-08-18T02:59:19;13.75;;;10.80;;
12966;SDS011;6548;49.996;8.238;2022-08-18T03:01:47;10.27;;;9.20;;
12966;SDS011;6548;49.996;8.238;2022-08-18T03:04:16;13.45;;;9.52;;
12966;SDS011;6548;49.996;8.238;2022-08-18T03:06:44;12.57;;;8.95;;
12966;SDS011;6548;49.996;8.238;2022-08-18T03:09:11;11.63;;;9.25;;
12966;SDS011;6548;49.996;8.238;2022-08-18T03:11:38;11.25;;;9.63;;
12966;SDS011;6548;49.996;8.238;2022-08-18T03:14:04;11.05;;;9.45;;
12966;SDS011;6548;49.996;8.238;2022-08-18T03:16:30;11.20;;;9.23;;
12966;SDS011;6548;49.996;8.238;2022-08-18T03:18:57;11.98;;;10.00;;
12966;SDS011;6548;49.996;8.238;2022-08-18T03:21:25;11.75;;;9.50;;
12966;SDS011;6548;49.996;8.238;2022-08-18T03:23:53;12.05;;;9.40;;
12966;SDS011;6548;49.996;8.238;2022-08-18T03:26:20;11.35;;;8.88;;
12966;SDS011;6548;49.996;8.238;2022-08-18T03:28:47;9.73;;;8.38;;
12966;SDS011;6548;49.996;8.238;2022-08-18T03:31:15;10.70;;;9.02;;
12966;SDS011;6548;49.996;8.238;2022-08-18T03:33:43;10.13;;;9.07;;
12966;SDS011;6548;49.996;8.238;2022-08-18T03:36:10;11.13;;;9.60;;
12966;SDS011;6548;49.996;8.238;2022-08-18T03:38:47;11.10;;;9.05;;
12966;SDS011;6548;49.996;8.238;2022-08-18T03:41:14;11.52;;;9.60;;
12966;SDS011;6548;49.996;8.238;2022-08-18T03:43:42;11.40;;;9.88;;
12966;SDS011;6548;49.996;8.238;2022-08-18T03:46:09;10.77;;;8.98;;
12966;SDS011;6548;49.996;8.238;2022-08-18T03:48:37;10.80;;;8.98;;
12966;SDS011;6548;49.996;8.238;2022-08-18T03:53:31;14.60;;;10.13;;
12966;SDS011;6548;49.996;8.238;2022-08-18T03:56:01;11.45;;;8.98;;
12966;SDS011;6548;49.996;8.238;2022-08-18T03:58:30;12.95;;;10.45;;
12966;SDS011;6548;49.996;8.238;2022-08-18T04:00:56;13.20;;;10.18;;
12966;SDS011;6548;49.996;8.238;2022-08-18T04:03:22;11.88;;;9.82;;
12966;SDS011;6548;49.996;8.238;2022-08-18T04:05:47;10.25;;;9.25;;
12966;SDS011;6548;49.996;8.238;2022-08-18T04:08:13;11.10;;;9.70;;
12966;SDS011;6548;49.996;8.238;2022-08-18T04:10:38;10.68;;;9.50;;
12966;SDS011;6548;49.996;8.238;2022-08-18T04:13:04;10.35;;;9.30;;
12966;SDS011;6548;49.996;8.238;2022-08-18T04:15:32;12.38;;;9.95;;
12966;SDS011;6548;49.996;8.238;2022-08-18T04:17:58;15.93;;;10.85;;
12966;SDS011;6548;49.996;8.238;2022-08-18T04:20:32;12.68;;;9.90;;
12966;SDS011;6548;49.996;8.238;2022-08-18T04:22:59;13.88;;;10.48;;
12966;SDS011;6548;49.996;8.238;2022-08-18T04:25:25;13.38;;;11.60;;
12966;SDS011;6548;49.996;8.238;2022-08-18T04:27:51;13.77;;;10.48;;
12966;SDS011;6548;49.996;8.238;2022-08-18T04:30:21;13.73;;;10.57;;
12966;SDS011;6548;49.996;8.238;2022-08-18T04:32:48;15.55;;;11.20;;
12966;SDS011;6548;49.996;8.238;2022-08-18T04:35:14;13.73;;;11.43;;
12966;SDS011;6548;49.996;8.238;2022-08-18T04:37:40;12.65;;;10.15;;
12966;SDS011;6548;49.996;8.238;2022-08-18T04:40:07;10.90;;;9.57;;
12966;SDS011;6548;49.996;8.238;2022-08-18T04:42:34;12.65;;;9.35;;
12966;SDS011;6548;49.996;8.238;2022-08-18T04:44:59;13.15;;;9.85;;
12966;SDS011;6548;49.996;8.238;2022-08-18T04:47:25;12.88;;;10.10;;
12966;SDS011;6548;49.996;8.238;2022-08-18T04:49:51;13.50;;;10.55;;
12966;SDS011;6548;49.996;8.238;2022-08-18T04:52:16;13.90;;;11.70;;
12966;SDS011;6548;49.996;8.238;2022-08-18T04:55:00;12.40;;;11.10;;
12966;SDS011;6548;49.996;8.238;2022-08-18T04:57:27;14.30;;;10.93;;
12966;SDS011;6548;49.996;8.238;2022-08-18T04:59:55;13.98;;;9.88;;
12966;SDS011;6548;49.996;8.238;2022-08-18T05:02:22;14.73;;;10.60;;
12966;SDS011;6548;49.996;8.238;2022-08-18T05:04:47;15.57;;;11.45;;
12966;SDS011;6548;49.996;8.238;2022-08-18T05:07:15;13.63;;;10.07;;
12966;SDS011;6548;49.996;8.238;2022-08-18T05:09:42;12.45;;;10.13;;
12966;SDS011;6548;49.996;8.238;2022-08-18T05:12:09;16.05;;;11.15;;
12966;SDS011;6548;49.996;8.238;2022-08-18T05:14:37;12.02;;;10.43;;
12966;SDS011;6548;49.996;8.238;2022-08-18T05:17:03;11.93;;;10.32;;
12966;SDS011;6548;49.996;8.238;2022-08-18T05:19:29;15.75;;;10.70;;
12966;SDS011;6548;49.996;8.238;2022-08-18T05:21:55;14.00;;;10.50;;
12966;SDS011;6548;49.996;8.238;2022-08-18T05:24:23;12.32;;;10.85;;
12966;SDS011;6548;49.996;8.238;2022-08-18T05:26:51;14.65;;;11.23;;
12966;SDS011;6548;49.996;8.238;2022-08-18T05:29:21;12.23;;;10.55;;
12966;SDS011;6548;49.996;8.238;2022-08-18T05:31:47;12.45;;;10.77;;
12966;SDS011;6548;49.996;8.238;2022-08-18T05:34:15;11.93;;;10.35;;
12966;SDS011;6548;49.996;8.238;2022-08-18T05:36:45;12.13;;;10.18;;
12966;SDS011;6548;49.996;8.238;2022-08-18T05:41:43;13.65;;;10.40;;
12966;SDS011;6548;49.996;8.238;2022-08-18T05:44:14;13.90;;;10.23;;
12966;SDS011;6548;49.996;8.238;2022-08-18T05:46:47;12.15;;;10.50;;
12966;SDS011;6548;49.996;8.238;2022-08-18T05:49:14;11.25;;;9.13;;
12966;SDS011;6548;49.996;8.238;2022-08-18T05:51:51;15.93;;;10.15;;
12966;SDS011;6548;49.996;8.238;2022-08-18T05:54:20;14.13;;;10.38;;
12966;SDS011;6548;49.996;8.238;2022-08-18T05:57:07;16.00;;;10.07;;
12966;SDS011;6548;49.996;8.238;2022-08-18T05:59:37;14.87;;;10.70;;
12966;SDS011;6548;49.996;8.238;2022-08-18T06:02:13;16.02;;;10.55;;
12966;SDS011;6548;49.996;8.238;2022-08-18T06:05:08;15.48;;;10.30;;
12966;SDS011;6548;49.996;8.238;2022-08-18T06:07:41;17.00;;;11.38;;
12966;SDS011;6548;49.996;8.238;2022-08-18T06:10:18;12.18;;;10.80;;
12966;SDS011;6548;49.996;8.238;2022-08-18T06:12:45;11.98;;;10.43;;
12966;SDS011;6548;49.996;8.238;2022-08-18T06:20:29;12.18;;;10.90;;
12966;SDS011;6548;49.996;8.238;2022-08-18T06:26:20;12.90;;;10.75;;
12966;SDS011;6548;49.996;8.238;2022-08-18T06:29:49;15.30;;;11.70;;
12966;SDS011;6548;49.996;8.238;2022-08-18T06:34:59;13.40;;;10.32;;
12966;SDS011;6548;49.996;8.238;2022-08-18T06:37:59;13.57;;;11.20;;
12966;SDS011;6548;49.996;8.238;2022-08-18T06:43:52;14.77;;;11.70;;
12966;SDS011;6548;49.996;8.238;2022-08-18T06:46:26;15.52;;;11.98;;
12966;SDS011;6548;49.996;8.238;2022-08-18T06:52:16;15.02;;;11.68;;
12966;SDS011;6548;49.996;8.238;2022-08-18T06:54:47;17.83;;;12.38;;
12966;SDS011;6548;49.996;8.238;2022-08-18T07:00:23;17.80;;;12.07;;
12966;SDS011;6548;49.996;8.238;2022-08-18T07:02:52;17.00;;;13.30;;
12966;SDS011;6548;49.996;8.238;2022-08-18T07:05:28;14.25;;;12.30;;
12966;SDS011;6548;49.996;8.238;2022-08-18T07:10:32;15.52;;;11.65;;
12966;SDS011;6548;49.996;8.238;2022-08-18T07:13:07;15.38;;;12.65;;
12966;SDS011;6548;49.996;8.238;2022-08-18T07:15:41;14.43;;;11.35;;
12966;SDS011;6548;49.996;8.238;2022-08-18T07:18:09;13.55;;;11.68;;
12966;SDS011;6548;49.996;8.238;2022-08-18T07:20:40;13.85;;;11.10;;
12966;SDS011;6548;49.996;8.238;2022-08-18T07:23:08;14.82;;;11.27;;
12966;SDS011;6548;49.996;8.238;2022-08-18T07:25:44;12.93;;;11.25;;
12966;SDS011;6548;49.996;8.238;2022-08-18T07:33:42;12.25;;;10.18;;
12966;SDS011;6548;49.996;8.238;2022-08-18T07:36:34;13.43;;;10.55;;
12966;SDS011;6548;49.996;8.238;2022-08-18T07:39:12;11.80;;;10.60;;
12966;SDS011;6548;49.996;8.238;2022-08-18T07:42:08;14.45;;;11.00;;
12966;SDS011;6548;49.996;8.238;2022-08-18T07:45:05;17.58;;;11.50;;
12966;SDS011;6548;49.996;8.238;2022-08-18T07:47:50;12.38;;;9.88;;
12966;SDS011;6548;49.996;8.238;2022-08-18T07:50:20;13.63;;;10.07;;
12966;SDS011;6548;49.996;8.238;2022-08-18T07:55:32;15.60;;;11.15;;
12966;SDS011;6548;49.996;8.238;2022-08-18T07:58:23;11.05;;;9.70;;
12966;SDS011;6548;49.996;8.238;2022-08-18T08:01:12;11.30;;;10.20;;
12966;SDS011;6548;49.996;8.238;2022-08-18T08:03:48;12.80;;;10.02;;
12966;SDS011;6548;49.996;8.238;2022-08-18T08:06:26;11.23;;;10.10;;
12966;SDS011;6548;49.996;8.238;2022-08-18T08:09:08;10.82;;;9.73;;
12966;SDS011;6548;49.996;8.238;2022-08-18T08:11:51;12.25;;;10.25;;
12966;SDS011;6548;49.996;8.238;2022-08-18T08:19:52;17.90;;;12.35;;
12966;SDS011;6548;49.996;8.238;2022-08-18T08:25:25;15.02;;;12.02;;
12966;SDS011;6548;49.996;8.238;2022-08-18T08:33:37;16.58;;;11.85;;
12966;SDS011;6548;49.996;8.238;2022-08-18T08:36:38;16.08;;;12.48;;
12966;SDS011;6548;49.996;8.238;2022-08-18T08:41:48;14.93;;;11.85;;
12966;SDS011;6548;49.996;8.238;2022-08-18T08:46:49;20.20;;;12.77;;
12966;SDS011;6548;49.996;8.238;2022-08-18T08:49:31;24.58;;;15.60;;
12966;SDS011;6548;49.996;8.238;2022-08-18T08:54:48;19.77;;;14.77;;
12966;SDS011;6548;49.996;8.238;2022-08-18T08:57:25;20.67;;;13.77;;
12966;SDS011;6548;49.996;8.238;2022-08-18T08:59:56;18.80;;;14.40;;
12966;SDS011;6548;49.996;8.238;2022-08-18T09:02:30;21.67;;;13.63;;
12966;SDS011;6548;49.996;8.238;2022-08-18T09:07:44;16.10;;;12.88;;
12966;SDS011;6548;49.996;8.238;2022-08-18T09:21:47;21.77;;;14.30;;
12966;SDS011;6548;49.996;8.238;2022-08-18T09:24:31;17.80;;;13.68;;
12966;SDS011;6548;49.996;8.238;2022-08-18T09:27:12;19.52;;;14.50;;
12966;SDS011;6548;49.996;8.238;2022-08-18T09:29:54;17.98;;;13.85;;
12966;SDS011;6548;49.996;8.238;2022-08-18T09:37:27;13.43;;;11.38;;
12966;SDS011;6548;49.996;8.238;2022-08-18T09:40:13;12.52;;;11.00;;
12966;SDS011;6548;49.996;8.238;2022-08-18T09:43:09;14.52;;;11.10;;
12966;SDS011;6548;49.996;8.238;2022-08-18T09:45:53;16.35;;;11.15;;
12966;SDS011;6548;49.996;8.238;2022-08-18T09:48:28;16.15;;;10.88;;
12966;SDS011;6548;49.996;8.238;2022-08-18T09:50:55;15.27;;;11.32;;
12966;SDS011;6548;49.996;8.238;2022-08-18T09:56:09;15.27;;;11.25;;
12966;SDS011;6548;49.996;8.238;2022-08-18T09:58:56;14.02;;;10.80;;
12966;SDS011;6548;49.996;8.238;2022-08-18T10:07:34;13.93;;;11.05;;
12966;SDS011;6548;49.996;8.238;2022-08-18T10:12:51;11.50;;;10.30;;
12966;SDS011;6548;49.996;8.238;2022-08-18T10:15:35;11.63;;;10.30;;
12966;SDS011;6548;49.996;8.238;2022-08-18T10:18:36;12.35;;;10.82;;
12966;SDS011;6548;49.996;8.238;2022-08-18T10:21:24;13.93;;;10.93;;
12966;SDS011;6548;49.996;8.238;2022-08-18T10:31:30;13.65;;;11.77;;
12966;SDS011;6548;49.996;8.238;2022-08-18T10:37:26;14.18;;;11.32;;
12966;SDS011;6548;49.996;8.238;2022-08-18T10:43:00;15.90;;;11.50;;
12966;SDS011;6548;49.996;8.238;2022-08-18T10:45:37;14.93;;;11.55;;
12966;SDS011;6548;49.996;8.238;2022-08-18T10:48:29;13.15;;;11.02;;
12966;SDS011;6548;49.996;8.238;2022-08-18T10:54:13;13.73;;;11.38;;
12966;SDS011;6548;49.996;8.238;2022-08-18T10:56:49;15.18;;;11.48;;
12966;SDS011;6548;49.996;8.238;2022-08-18T10:59:31;13.82;;;11.38;;
12966;SDS011;6548;49.996;8.238;2022-08-18T11:02:13;12.57;;;10.93;;
12966;SDS011;6548;49.996;8.238;2022-08-18T11:04:47;13.43;;;11.10;;
12966;SDS011;6548;49.996;8.238;2022-08-18T11:07:19;12.88;;;11.25;;
12966;SDS011;6548;49.996;8.238;2022-08-18T11:09:48;13.32;;;11.73;;
12966;SDS011;6548;49.996;8.238;2022-08-18T11:15:20;13.05;;;11.20;;
12966;SDS011;6548;49.996;8.238;2022-08-18T11:18:15;12.30;;;10.75;;
12966;SDS011;6548;49.996;8.238;2022-08-18T11:24:04;12.98;;;11.68;;
12966;SDS011;6548;49.996;8.238;2022-08-18T11:26:31;14.30;;;11.77;;
12966;SDS011;6548;49.996;8.238;2022-08-18T11:31:59;13.68;;;11.13;;
12966;SDS011;6548;49.996;8.238;2022-08-18T11:34:42;15.45;;;13.27;;
12966;SDS011;6548;49.996;8.238;2022-08-18T11:43:01;13.52;;;11.98;;
12966;SDS011;6548;49.996;8.238;2022-08-18T11:45:29;18.90;;;12.50;;
12966;SDS011;6548;49.996;8.238;2022-08-18T11:50:57;12.38;;;10.80;;
12966;SDS011;6548;49.996;8.238;2022-08-18T12:01:09;21.55;;;12.55;;
12966;SDS011;6548;49.996;8.238;2022-08-18T12:03:57;15.60;;;12.65;;
12966;SDS011;6548;49.996;8.238;2022-08-18T12:06:27;12.38;;;10.57;;
12966;SDS011;6548;49.996;8.238;2022-08-18T12:08:56;9.85;;;8.95;;
12966;SDS011;6548;49.996;8.238;2022-08-18T12:11:33;11.15;;;9.40;;
12966;SDS011;6548;49.996;8.238;2022-08-18T12:14:09;10.73;;;9.63;;
12966;SDS011;6548;49.996;8.238;2022-08-18T12:16:44;12.23;;;9.27;;
12966;SDS011;6548;49.996;8.238;2022-08-18T12:19:11;7.93;;;7.15;;
12966;SDS011;6548;49.996;8.238;2022-08-18T12:21:41;11.07;;;9.63;;
12966;SDS011;6548;49.996;8.238;2022-08-18T12:24:21;8.95;;;8.10;;
12966;SDS011;6548;49.996;8.238;2022-08-18T12:26:48;9.33;;;8.40;;
12966;SDS011;6548;49.996;8.238;2022-08-18T12:29:15;12.25;;;9.93;;
12966;SDS011;6548;49.996;8.238;2022-08-18T12:31:43;11.18;;;9.02;;
12966;SDS011;6548;49.996;8.238;2022-08-18T12:34:09;8.77;;;7.97;;
12966;SDS011;6548;49.996;8.238;2022-08-18T12:36:35;10.68;;;9.43;;
12966;SDS011;6548;49.996;8.238;2022-08-18T12:39:01;12.95;;;9.65;;
12966;SDS011;6548;49.996;8.238;2022-08-18T12:41:27;10.68;;;9.73;;
12966;SDS011;6548;49.996;8.238;2022-08-18T12:43:53;14.45;;;10.77;;
12966;SDS011;6548;49.996;8.238;2022-08-18T12:46:19;11.75;;;9.45;;
12966;SDS011;6548;49.996;8.238;2022-08-18T12:48:45;11.23;;;10.13;;
12966;SDS011;6548;49.996;8.238;2022-08-18T12:51:11;13.00;;;9.60;;
12966;SDS011;6548;49.996;8.238;2022-08-18T12:53:37;10.57;;;8.60;;
12966;SDS011;6548;49.996;8.238;2022-08-18T12:56:03;12.48;;;9.57;;
12966;SDS011;6548;49.996;8.238;2022-08-18T12:58:40;11.68;;;8.13;;
12966;SDS011;6548;49.996;8.238;2022-08-18T13:01:06;8.57;;;7.72;;
12966;SDS011;6548;49.996;8.238;2022-08-18T13:03:31;8.32;;;7.53;;
12966;SDS011;6548;49.996;8.238;2022-08-18T13:05:57;8.63;;;7.82;;
12966;SDS011;6548;49.996;8.238;2022-08-18T13:08:23;11.05;;;8.80;;
12966;SDS011;6548;49.996;8.238;2022-08-18T13:10:49;9.32;;;8.38;;
12966;SDS011;6548;49.996;8.238;2022-08-18T13:13:16;9.82;;;8.38;;
12966;SDS011;6548;49.996;8.238;2022-08-18T13:15:43;8.32;;;7.53;;
12966;SDS011;6548;49.996;8.238;2022-08-18T13:18:09;9.18;;;8.27;;
12966;SDS011;6548;49.996;8.238;2022-08-18T13:20:35;9.50;;;8.60;;
12966;SDS011;6548;49.996;8.238;2022-08-18T13:23:01;8.70;;;7.65;;
12966;SDS011;6548;49.996;8.238;2022-08-18T13:25:27;8.90;;;8.00;;
12966;SDS011;6548;49.996;8.238;2022-08-18T13:27:52;8.48;;;7.40;;
12966;SDS011;6548;49.996;8.238;2022-08-18T13:30:20;9.35;;;7.57;;
12966;SDS011;6548;49.996;8.238;2022-08-18T13:32:46;8.10;;;7.30;;
12966;SDS011;6548;49.996;8.238;2022-08-18T13:35:18;8.98;;;7.28;;
12966;SDS011;6548;49.996;8.238;2022-08-18T13:37:43;7.97;;;7.22;;
12966;SDS011;6548;49.996;8.238;2022-08-18T13:40:10;9.38;;;7.47;;
12966;SDS011;6548;49.996;8.238;2022-08-18T13:42:44;7.75;;;7.03;;
12966;SDS011;6548;49.996;8.238;2022-08-18T13:45:11;7.80;;;7.15;;
12966;SDS011;6548;49.996;8.238;2022-08-18T13:47:38;9.50;;;8.52;;
12966;SDS011;6548;49.996;8.238;2022-08-18T13:50:04;9.25;;;8.38;;
12966;SDS011;6548;49.996;8.238;2022-08-18T13:52:30;7.72;;;6.78;;
12966;SDS011;6548;49.996;8.238;2022-08-18T13:54:56;9.15;;;8.25;;
12966;SDS011;6548;49.996;8.238;2022-08-18T13:57:22;9.10;;;8.27;;
12966;SDS011;6548;49.996;8.238;2022-08-18T13:59:47;8.45;;;7.65;;
12966;SDS011;6548;49.996;8.238;2022-08-18T14:02:13;8.05;;;7.35;;
12966;SDS011;6548;49.996;8.238;2022-08-18T14:04:38;11.70;;;8.45;;
12966;SDS011;6548;49.996;8.238;2022-08-18T14:07:04;8.30;;;7.60;;
12966;SDS011;6548;49.996;8.238;2022-08-18T14:09:31;8.05;;;7.35;;
12966;SDS011;6548;49.996;8.238;2022-08-18T14:11:57;8.20;;;7.20;;
12966;SDS011;6548;49.996;8.238;2022-08-18T14:14:23;9.45;;;7.32;;
12966;SDS011;6548;49.996;8.238;2022-08-18T14:16:49;8.57;;;7.78;;
12966;SDS011;6548;49.996;8.238;2022-08-18T14:19:14;8.73;;;7.93;;
12966;SDS011;6548;49.996;8.238;2022-08-18T14:22:09;9.20;;;8.27;;
12966;SDS011;6548;49.996;8.238;2022-08-18T14:24:54;8.85;;;8.05;;
12966;SDS011;6548;49.996;8.238;2022-08-18T14:27:38;9.50;;;8.50;;
12966;SDS011;6548;49.996;8.238;2022-08-18T14:30:05;10.27;;;7.95;;
12966;SDS011;6548;49.996;8.238;2022-08-18T14:32:32;9.15;;;8.27;;
12966;SDS011;6548;49.996;8.238;2022-08-18T14:34:59;9.20;;;8.25;;
12966;SDS011;6548;49.996;8.238;2022-08-18T14:37:26;8.55;;;7.85;;
12966;SDS011;6548;49.996;8.238;2022-08-18T14:39:53;9.43;;;8.63;;
12966;SDS011;6548;49.996;8.238;2022-08-18T14:42:18;10.60;;;9.70;;
12966;SDS011;6548;49.996;8.238;2022-08-18T14:44:45;10.60;;;9.27;;
12966;SDS011;6548;49.996;8.238;2022-08-18T14:47:14;10.15;;;9.07;;
12966;SDS011;6548;49.996;8.238;2022-08-18T14:49:40;10.60;;;9.60;;
12966;SDS011;6548;49.996;8.238;2022-08-18T14:52:07;11.13;;;10.02;;
12966;SDS011;6548;49.996;8.238;2022-08-18T14:54:34;11.43;;;10.43;;
12966;SDS011;6548;49.996;8.238;2022-08-18T14:57:00;11.48;;;10.32;;
12966;SDS011;6548;49.996;8.238;2022-08-18T14:59:26;12.25;;;10.65;;
12966;SDS011;6548;49.996;8.238;2022-08-18T15:01:54;11.48;;;10.20;;
12966;SDS011;6548;49.996;8.238;2022-08-18T15:04:20;11.43;;;10.27;;
12966;SDS011;6548;49.996;8.238;2022-08-18T15:06:46;11.30;;;10.10;;
12966;SDS011;6548;49.996;8.238;2022-08-18T15:09:13;11.05;;;9.95;;
12966;SDS011;6548;49.996;8.238;2022-08-18T15:11:39;11.73;;;10.60;;
12966;SDS011;6548;49.996;8.238;2022-08-18T15:14:06;13.80;;;10.77;;
12966;SDS011;6548;49.996;8.238;2022-08-18T15:16:31;16.45;;;12.15;;
12966;SDS011;6548;49.996;8.238;2022-08-18T15:19:00;14.07;;;11.63;;
12966;SDS011;6548;49.996;8.238;2022-08-18T15:21:27;13.63;;;11.15;;
12966;SDS011;6548;49.996;8.238;2022-08-18T15:24:12;12.95;;;11.40;;
12966;SDS011;6548;49.996;8.238;2022-08-18T15:26:56;16.67;;;12.18;;
12966;SDS011;6548;49.996;8.238;2022-08-18T15:29:23;12.65;;;11.45;;
12966;SDS011;6548;49.996;8.238;2022-08-18T15:31:50;13.25;;;11.30;;
12966;SDS011;6548;49.996;8.238;2022-08-18T15:34:15;11.23;;;10.13;;
12966;SDS011;6548;49.996;8.238;2022-08-18T15:36:42;10.70;;;9.70;;
12966;SDS011;6548;49.996;8.238;2022-08-18T15:39:08;10.75;;;9.10;;
12966;SDS011;6548;49.996;8.238;2022-08-18T15:41:38;10.25;;;9.25;;
12966;SDS011;6548;49.996;8.238;2022-08-18T15:44:05;9.57;;;8.35;;
12966;SDS011;6548;49.996;8.238;2022-08-18T15:46:33;11.27;;;10.05;;
12966;SDS011;6548;49.996;8.238;2022-08-18T15:49:01;10.25;;;8.95;;
12966;SDS011;6548;49.996;8.238;2022-08-18T15:51:30;11.77;;;10.57;;
12966;SDS011;6548;49.996;8.238;2022-08-18T15:53:56;12.07;;;10.00;;
12966;SDS011;6548;49.996;8.238;2022-08-18T15:56:22;11.40;;;10.30;;
12966;SDS011;6548;49.996;8.238;2022-08-18T15:58:49;10.85;;;9.77;;
12966;SDS011;6548;49.996;8.238;2022-08-18T16:01:16;12.55;;;9.90;;
12966;SDS011;6548;49.996;8.238;2022-08-18T16:03:44;14.45;;;11.00;;
12966;SDS011;6548;49.996;8.238;2022-08-18T16:06:20;13.00;;;10.73;;
12966;SDS011;6548;49.996;8.238;2022-08-18T16:08:49;13.15;;;10.80;;
12966;SDS011;6548;49.996;8.238;2022-08-18T16:11:16;12.20;;;11.00;;
12966;SDS011;6548;49.996;8.238;2022-08-18T16:13:43;11.77;;;10.07;;
12966;SDS011;6548;49.996;8.238;2022-08-18T16:18:36;12.95;;;10.73;;
12966;SDS011;6548;49.996;8.238;2022-08-18T16:21:08;14.23;;;10.95;;
12966;SDS011;6548;49.996;8.238;2022-08-18T16:23:36;13.77;;;12.02;;
12966;SDS011;6548;49.996;8.238;2022-08-18T16:26:03;12.55;;;10.50;;
12966;SDS011;6548;49.996;8.238;2022-08-18T16:28:30;12.07;;;10.77;;
12966;SDS011;6548;49.996;8.238;2022-08-18T16:30:56;12.05;;;10.70;;
12966;SDS011;6548;49.996;8.238;2022-08-18T16:33:22;12.93;;;11.32;;
12966;SDS011;6548;49.996;8.238;2022-08-18T16:35:48;14.50;;;11.80;;
12966;SDS011;6548;49.996;8.238;2022-08-18T16:38:15;14.52;;;11.02;;
12966;SDS011;6548;49.996;8.238;2022-08-18T16:40:41;11.85;;;10.65;;
12966;SDS011;6548;49.996;8.238;2022-08-18T16:43:07;14.40;;;10.77;;
12966;SDS011;6548;49.996;8.238;2022-08-18T16:45:34;11.55;;;9.73;;
12966;SDS011;6548;49.996;8.238;2022-08-18T16:48:01;13.10;;;10.13;;
12966;SDS011;6548;49.996;8.238;2022-08-18T16:50:26;12.60;;;9.65;;
12966;SDS011;6548;49.996;8.238;2022-08-18T16:52:52;11.55;;;9.85;;
12966;SDS011;6548;49.996;8.238;2022-08-18T16:55:18;12.88;;;10.65;;
12966;SDS011;6548;49.996;8.238;2022-08-18T16:57:44;13.00;;;9.98;;
12966;SDS011;6548;49.996;8.238;2022-08-18T17:00:29;16.08;;;11.55;;
12966;SDS011;6548;49.996;8.238;2022-08-18T17:03:15;12.32;;;10.40;;
12966;SDS011;6548;49.996;8.238;2022-08-18T17:06:03;13.65;;;10.88;;
12966;SDS011;6548;49.996;8.238;2022-08-18T17:08:31;13.20;;;10.73;;
12966;SDS011;6548;49.996;8.238;2022-08-18T17:10:58;12.48;;;10.23;;
12966;SDS011;6548;49.996;8.238;2022-08-18T17:13:25;15.90;;;11.65;;
12966;SDS011;6548;49.996;8.238;2022-08-18T17:15:50;12.90;;;10.40;;
12966;SDS011;6548;49.996;8.238;2022-08-18T17:18:16;12.63;;;9.82;;
12966;SDS011;6548;49.996;8.238;2022-08-18T17:20:43;15.55;;;11.40;;
12966;SDS011;6548;49.996;8.238;2022-08-18T17:23:09;13.77;;;10.57;;
12966;SDS011;6548;49.996;8.238;2022-08-18T17:25:35;12.77;;;10.45;;